Share

Adak, AK

Adak (PADK) Elev 13 ft | 51.88 °N, 176.65 °W | Change Station

Current weather conditions updated 19 minutes ago

Scattered Clouds
Scattered Clouds
37 °F
Feels Like 28 °F
N
18
Wind Variable Wind from NNW
Gusts 23 mph
Sunrise 7:43 AM
Sunset 9:49 PM
Moon Waning Gibbous

Today is forecast to be nearly the same temperature as yesterday. Rain and snow showers.

Pressure 29.66 in
Visibility 10.0 miles
Clouds Few 2100 ft
Scattered Clouds 3000 ft
Windchill 28 °F
Dew Point 30 °F
Humidity 75%
Rainfall 0.01 in
Snow Depth Not available.
UV 5 out of 16
Pollen Not available.
Air Quality Not available.
Flu Activity Sporadic
METAR PADK 190036Z AUTO 34016G20KT 10SM FEW021 SCT030 03/M01 A2966 RMK AO1

More Conditions Fewer Conditions

Pressure 29.66 in
Visibility 10.0 miles
Clouds Few 2100 ft
Scattered Clouds 3000 ft
Windchill 28 °F
Dew Point 30 °F
Humidity 75%
Rainfall 0.01 in
Snow Depth Not available.
UV 5 out of 16
Pollen Not available.
Air Quality Not available.
Flu Activity Sporadic
METAR PADK 190036Z AUTO 34016G20KT 10SM FEW021 SCT030 03/M01 A2966 RMK AO1

More Conditions Fewer Conditions

10-Day Weather Forecast

Almanac

Astronomy

Apr. 18, 2014 Rise Set
Actual Time 7:43 AM HADT 9:49 PM HADT
Civil Twilight 7:06 AM HADT 10:26 PM HADT
Nautical Twilight 6:21 AM HADT 11:11 PM HADT
Astronomical Twilight 5:29 AM HADT 12:04 AM HADT
Moon 1:04 AM HADT (4/18) 10:01 AM HADT (4/18)
Length of Visible Light 15h 19m
Length of Day
14h 06m
Tomorrow will be 3m 50s longer.
Waning Gibbous, 84% of the Moon is Illuminated
Today
Waning Gibbous
Apr 22
Last Quarter
Apr 29
New
May 6
First Quarter
May 14
Full

Today's Extremes

State Highs State Lows

Community

  • Cloudy spring view
    Cloudy spring view
  • Old barn
    Old barn
  • What's for Lunch?
    What's for Lunch?
  • SUNRISE THROUGH THE TREES.
    SUNRISE THROUGH THE TREES.
  • Dog Wood Blossoms
    Dog Wood Blossoms

WunderPhotos

Upload Photos

1,702,549 photos uploaded!

WunderBlogs® & News

Nearby

Snow Depth

Station Depth Elevation
Rocky Point 6 in 500 ft
Pargon Creek 3 in 300 ft
Port Graham 8 in 300 ft
Mcneil Canyon 9 in 1320 ft
MF Bradley River 22 in 2300 ft

Coastal Water Temperatures

Place Temperature
No Stations Reporting

Earthquake Activity

City Distance Mag. Time & Date
No recent earthquake activity has been reported nearby.
Minimum magnitude displayed is 2.5.

Nearby Weather Stations

There are no personal weather stations in this area.

What do you think?

We're not finished. Please let us know what you like, what you don't like, and what you are still missing.